createdAt,value
2018-09-02T00:01:10.449Z,17.43
2018-09-02T00:03:39.220Z,17.80
2018-09-02T00:06:08.166Z,26.50
2018-09-02T00:08:37.106Z,26.00
2018-09-02T00:11:05.459Z,20.70
2018-09-02T00:13:33.960Z,21.87
2018-09-02T00:16:04.340Z,23.20
2018-09-02T00:18:33.695Z,21.23
2018-09-02T00:21:08.472Z,21.87
2018-09-02T00:23:40.399Z,22.10
2018-09-02T00:26:08.763Z,21.77
2018-09-02T00:28:37.172Z,23.30
2018-09-02T00:31:07.397Z,21.20
2018-09-02T00:33:35.856Z,24.40
2018-09-02T00:36:05.438Z,25.20
2018-09-02T00:38:34.798Z,27.73
2018-09-02T00:41:03.023Z,24.53
2018-09-02T00:43:33.235Z,26.30
2018-09-02T00:46:02.319Z,29.87
2018-09-02T00:48:30.495Z,24.67
2018-09-02T00:50:58.865Z,29.90
2018-09-02T00:53:29.051Z,25.07
2018-09-02T00:55:57.496Z,26.40
2018-09-02T00:58:25.745Z,29.27
2018-09-02T01:00:55.417Z,26.33
2018-09-02T01:03:23.422Z,27.73
2018-09-02T01:05:52.656Z,21.90
2018-09-02T01:08:21.021Z,30.53
2018-09-02T01:10:50.159Z,20.13
2018-09-02T01:13:19.419Z,26.77
2018-09-02T01:15:48.261Z,26.07
2018-09-02T01:18:17.354Z,26.17
2018-09-02T01:20:46.235Z,23.80
2018-09-02T01:23:14.304Z,25.87
2018-09-02T01:25:42.647Z,24.00
2018-09-02T01:28:10.767Z,26.10
2018-09-02T01:30:39.230Z,26.17
2018-09-02T01:33:07.772Z,30.30
2018-09-02T01:35:37.152Z,31.83
2018-09-02T01:38:05.957Z,25.27
2018-09-02T01:40:35.564Z,25.33
2018-09-02T01:43:04.376Z,28.20
2018-09-02T01:45:34.114Z,21.00
2018-09-02T01:48:09.866Z,25.90
2018-09-02T01:50:38.237Z,28.87
2018-09-02T01:53:06.429Z,22.23
2018-09-02T01:55:34.716Z,24.10
2018-09-02T01:58:02.887Z,24.87
2018-09-02T02:00:31.383Z,31.47
2018-09-02T02:02:59.677Z,26.10
2018-09-02T02:05:28.169Z,24.73
2018-09-02T02:07:56.369Z,28.50
2018-09-02T02:10:24.408Z,24.40
2018-09-02T02:12:52.393Z,28.13
2018-09-02T02:15:20.376Z,26.10
2018-09-02T02:17:49.159Z,25.27
2018-09-02T02:20:17.396Z,30.13
2018-09-02T02:22:45.788Z,29.33
2018-09-02T02:25:13.847Z,28.57
2018-09-02T02:27:41.918Z,28.47
2018-09-02T02:30:10.041Z,37.27
2018-09-02T02:32:38.170Z,33.40
2018-09-02T02:35:06.720Z,38.03
2018-09-02T02:37:35.744Z,32.43
2018-09-02T02:40:04.364Z,39.87
2018-09-02T02:42:33.884Z,37.60
2018-09-02T02:45:02.465Z,34.17
2018-09-02T02:47:31.565Z,31.40
2018-09-02T02:50:00.017Z,30.80
2018-09-02T02:52:33.266Z,32.00
2018-09-02T02:55:01.388Z,35.00
2018-09-02T02:57:29.783Z,31.37
2018-09-02T02:59:57.730Z,31.10
2018-09-02T03:02:25.749Z,37.27
2018-09-02T03:04:53.768Z,31.80
2018-09-02T03:07:21.868Z,38.37
2018-09-02T03:09:49.923Z,31.07
2018-09-02T03:12:18.001Z,34.90
2018-09-02T03:14:46.142Z,33.40
2018-09-02T03:17:14.208Z,39.57
2018-09-02T03:19:42.483Z,36.83
2018-09-02T03:22:10.631Z,44.80
2018-09-02T03:24:39.065Z,39.27
2018-09-02T03:27:07.308Z,35.00
2018-09-02T03:29:35.696Z,39.73
2018-09-02T03:32:04.585Z,41.30
2018-09-02T03:34:32.925Z,45.30
2018-09-02T03:37:01.069Z,44.27
2018-09-02T03:39:29.745Z,46.03
2018-09-02T03:41:57.756Z,42.57
2018-09-02T03:44:25.894Z,43.93
2018-09-02T03:46:53.885Z,39.97
2018-09-02T03:49:22.318Z,39.67
2018-09-02T03:51:50.597Z,36.30
2018-09-02T03:54:18.544Z,47.13
2018-09-02T03:56:46.611Z,48.83
2018-09-02T03:59:15.018Z,37.90
2018-09-02T04:01:43.050Z,38.33
2018-09-02T04:04:11.249Z,33.63
2018-09-02T04:06:39.459Z,41.60
2018-09-02T04:09:08.585Z,34.93
2018-09-02T04:11:36.824Z,36.93
2018-09-02T04:14:05.081Z,40.63
2018-09-02T04:16:33.532Z,39.83
2018-09-02T04:19:01.753Z,36.70
2018-09-02T04:21:29.905Z,35.50
2018-09-02T04:23:57.954Z,38.37
2018-09-02T04:26:26.152Z,36.17
2018-09-02T04:28:54.209Z,37.70
2018-09-02T04:31:22.294Z,35.27
2018-09-02T04:33:50.318Z,34.43
2018-09-02T04:36:18.242Z,33.50
2018-09-02T04:38:46.233Z,33.07
2018-09-02T04:41:14.389Z,36.50
2018-09-02T04:43:42.463Z,30.50
2018-09-02T04:46:10.574Z,35.17
2018-09-02T04:48:38.564Z,26.80
2018-09-02T04:51:06.697Z,24.83
2018-09-02T04:53:34.864Z,27.37
2018-09-02T04:56:03.544Z,25.50
2018-09-02T04:58:31.629Z,23.10
2018-09-02T05:00:59.760Z,24.83
2018-09-02T05:03:27.952Z,28.10
2018-09-02T05:05:55.917Z,24.23
2018-09-02T05:08:23.897Z,29.20
2018-09-02T05:10:51.864Z,24.60
2018-09-02T05:13:19.876Z,30.90
2018-09-02T05:15:47.825Z,25.93
2018-09-02T05:18:15.872Z,30.20
2018-09-02T05:20:43.842Z,26.40
2018-09-02T05:23:11.980Z,36.40
2018-09-02T05:25:40.178Z,28.70
2018-09-02T05:28:08.266Z,23.30
2018-09-02T05:30:36.557Z,30.90
2018-09-02T05:33:04.881Z,29.63
2018-09-02T05:35:33.041Z,29.90
2018-09-02T05:38:01.146Z,28.83
2018-09-02T05:40:29.155Z,30.17
2018-09-02T05:42:57.639Z,38.53
2018-09-02T05:45:26.011Z,21.60
2018-09-02T05:47:53.997Z,29.40
2018-09-02T05:50:22.037Z,30.20
2018-09-02T05:52:50.068Z,28.40
2018-09-02T05:55:18.042Z,24.43
2018-09-02T05:57:46.069Z,21.30
2018-09-02T06:00:14.100Z,23.40
2018-09-02T06:02:42.193Z,21.50
2018-09-02T06:05:10.425Z,20.17
2018-09-02T06:07:38.621Z,20.03
2018-09-02T06:10:06.796Z,23.77
2018-09-02T06:12:35.027Z,16.60
2018-09-02T06:15:04.268Z,17.50
2018-09-02T06:17:32.512Z,17.67
2018-09-02T06:20:00.764Z,17.07
2018-09-02T06:22:28.916Z,19.17
2018-09-02T06:24:57.443Z,18.03
2018-09-02T06:27:25.769Z,21.30
2018-09-02T06:29:53.883Z,17.80
2018-09-02T06:32:22.125Z,21.27
2018-09-02T06:34:50.168Z,17.47
2018-09-02T06:37:18.188Z,16.60
2018-09-02T06:39:46.216Z,15.93
2018-09-02T06:42:14.284Z,16.53
2018-09-02T06:44:42.295Z,16.67
2018-09-02T06:47:10.411Z,21.77
2018-09-02T06:49:38.557Z,14.33
2018-09-02T06:52:06.950Z,22.60
2018-09-02T06:54:35.331Z,25.90
2018-09-02T06:57:03.721Z,17.53
2018-09-02T06:59:31.921Z,17.87
2018-09-02T07:02:00.082Z,18.30
2018-09-02T07:04:28.274Z,18.07
2018-09-02T07:06:56.627Z,16.97
2018-09-02T07:09:24.672Z,17.23
2018-09-02T07:11:52.700Z,17.37
2018-09-02T07:14:20.781Z,15.30
2018-09-02T07:16:48.680Z,13.73
2018-09-02T07:19:18.826Z,15.17
2018-09-02T07:21:46.815Z,15.53
2018-09-02T07:24:14.801Z,13.30
2018-09-02T07:26:43.262Z,20.77
2018-09-02T07:29:11.460Z,13.80
2018-09-02T07:31:40.166Z,15.67
2018-09-02T07:34:08.340Z,14.60
2018-09-02T07:36:36.726Z,15.50
2018-09-02T07:39:06.095Z,18.77
2018-09-02T07:41:34.592Z,17.93
2018-09-02T07:44:02.858Z,17.37
2018-09-02T07:46:31.847Z,21.73
2018-09-02T07:49:00.025Z,16.50
2018-09-02T07:51:28.289Z,16.47
2018-09-02T07:53:58.323Z,17.90
2018-09-02T07:56:26.569Z,16.20
2018-09-02T07:58:54.730Z,18.03
2018-09-02T08:01:22.708Z,21.30
2018-09-02T08:03:50.901Z,17.10
2018-09-02T08:06:18.885Z,14.47
2018-09-02T08:08:46.983Z,16.40
2018-09-02T08:11:15.089Z,14.13
2018-09-02T08:13:43.139Z,18.13
2018-09-02T08:16:12.575Z,14.33
2018-09-02T08:18:40.694Z,14.90
2018-09-02T08:21:08.834Z,13.03
2018-09-02T08:23:37.038Z,13.73
2018-09-02T08:26:05.907Z,15.00
2018-09-02T08:28:35.918Z,17.50
2018-09-02T08:31:04.263Z,15.50
2018-09-02T08:33:32.882Z,9.17
2018-09-02T08:36:03.427Z,11.73
2018-09-02T08:38:32.138Z,12.73
2018-09-02T08:41:00.281Z,10.87
2018-09-02T08:43:28.473Z,13.77
2018-09-02T08:45:56.449Z,16.10
2018-09-02T08:48:24.513Z,12.67
2018-09-02T08:50:52.530Z,13.60
2018-09-02T08:53:20.539Z,15.73
2018-09-02T08:55:49.147Z,11.13
2018-09-02T08:58:18.556Z,10.90
2018-09-02T09:00:48.860Z,17.30
2018-09-02T09:03:18.786Z,18.10
2018-09-02T09:05:47.895Z,15.77
2018-09-02T09:08:16.278Z,15.50
2018-09-02T09:10:45.120Z,12.80
2018-09-02T09:13:13.813Z,13.70
2018-09-02T09:15:42.040Z,12.93
2018-09-02T09:18:10.439Z,14.37
2018-09-02T09:20:39.134Z,17.27
2018-09-02T09:23:12.691Z,17.50
2018-09-02T09:25:41.818Z,13.97
2018-09-02T09:28:09.897Z,15.90
2018-09-02T09:30:38.449Z,14.63
2018-09-02T09:33:07.287Z,10.63
2018-09-02T09:35:36.385Z,15.90
2018-09-02T09:38:04.526Z,10.33
2018-09-02T09:40:37.057Z,10.83
2018-09-02T09:45:39.760Z,12.23
2018-09-02T09:48:08.910Z,11.63
2018-09-02T09:53:20.627Z,9.53
2018-09-02T09:55:51.109Z,11.47
2018-09-02T10:00:54.712Z,10.63
2018-09-02T10:03:23.813Z,10.90
2018-09-02T10:05:51.983Z,8.73
2018-09-02T10:08:20.607Z,10.53
2018-09-02T10:10:48.864Z,10.43
2018-09-02T10:13:19.440Z,18.47
2018-09-02T10:15:47.582Z,9.23
2018-09-02T10:18:15.753Z,8.87
2018-09-02T10:20:43.786Z,14.23
2018-09-02T10:23:12.967Z,13.60
2018-09-02T10:25:44.565Z,11.87
2018-09-02T10:28:12.876Z,16.90
2018-09-02T10:30:42.255Z,17.73
2018-09-02T10:33:10.714Z,11.67
2018-09-02T10:35:40.175Z,13.50
2018-09-02T10:38:10.089Z,14.03
2018-09-02T10:40:38.336Z,10.47
2018-09-02T10:43:06.640Z,13.00
2018-09-02T10:45:37.854Z,14.40
2018-09-02T10:48:06.063Z,27.73
2018-09-02T10:50:34.516Z,13.40
2018-09-02T10:53:02.990Z,12.30
2018-09-02T10:55:32.139Z,13.07
2018-09-02T10:58:00.257Z,12.10
2018-09-02T11:00:28.656Z,13.03
2018-09-02T11:02:57.701Z,14.07
2018-09-02T11:05:26.141Z,8.93
2018-09-02T11:07:54.326Z,8.37
2018-09-02T11:10:23.388Z,9.77
2018-09-02T11:12:51.617Z,11.67
2018-09-02T11:15:19.653Z,8.07
2018-09-02T11:17:48.151Z,9.10
2018-09-02T11:20:16.264Z,13.70
2018-09-02T11:22:44.813Z,8.23
2018-09-02T11:25:12.839Z,30.20
2018-09-02T11:27:41.042Z,7.63
2018-09-02T11:30:09.800Z,11.07
2018-09-02T11:32:39.081Z,8.13
2018-09-02T11:35:07.314Z,12.87
2018-09-02T11:37:35.653Z,16.00
2018-09-02T11:40:06.742Z,8.77
2018-09-02T11:42:39.406Z,9.53
2018-09-02T11:45:08.228Z,8.50
2018-09-02T11:47:47.915Z,10.87
2018-09-02T11:50:15.991Z,14.23
2018-09-02T11:55:19.020Z,9.43
2018-09-02T12:00:32.281Z,9.23
2018-09-02T12:03:00.590Z,7.30
2018-09-02T12:05:28.794Z,13.73
2018-09-02T12:07:57.053Z,11.47
2018-09-02T12:13:06.269Z,9.80
2018-09-02T12:18:08.719Z,6.50
2018-09-02T12:20:38.378Z,5.77
2018-09-02T12:23:06.888Z,6.47
2018-09-02T12:25:35.248Z,7.87
2018-09-02T12:28:03.577Z,10.87
2018-09-02T12:33:04.801Z,9.30
2018-09-02T12:40:48.432Z,9.53
2018-09-02T12:43:17.398Z,10.40
2018-09-02T12:45:47.796Z,13.33
2018-09-02T12:48:15.864Z,10.27
2018-09-02T12:53:16.400Z,7.47
2018-09-02T12:55:44.905Z,11.87
2018-09-02T12:58:13.539Z,9.90
2018-09-02T13:00:42.604Z,13.83
2018-09-02T13:03:10.689Z,9.50
2018-09-02T13:05:39.158Z,13.37
2018-09-02T13:08:07.664Z,9.40
2018-09-02T13:10:36.047Z,9.70
2018-09-02T13:13:20.879Z,6.63
2018-09-02T13:15:48.956Z,8.33
2018-09-02T13:18:17.195Z,6.13
2018-09-02T13:20:45.341Z,7.30
2018-09-02T13:25:46.449Z,11.10
2018-09-02T13:28:14.965Z,7.13
2018-09-02T13:30:43.081Z,6.20
2018-09-02T13:33:11.435Z,7.33
2018-09-02T13:35:39.678Z,11.00
2018-09-02T13:38:08.124Z,8.90
2018-09-02T13:40:36.520Z,9.23
2018-09-02T13:43:04.928Z,14.57
2018-09-02T13:45:40.112Z,5.47
2018-09-02T13:48:13.589Z,6.17
2018-09-02T13:50:42.396Z,4.10
2018-09-02T13:55:53.477Z,6.60
2018-09-02T13:58:21.467Z,6.43
2018-09-02T14:00:49.631Z,11.10
2018-09-02T14:03:18.241Z,5.73
2018-09-02T14:05:46.678Z,5.23
2018-09-02T14:22:01.378Z,8.60
2018-09-02T14:30:10.180Z,6.40
2018-09-02T14:35:32.768Z,12.10
2018-09-02T14:46:36.109Z,11.33
2018-09-02T15:04:14.233Z,11.40
2018-09-02T15:06:42.974Z,8.90
2018-09-02T15:15:08.840Z,7.00
2018-09-02T15:35:10.814Z,12.10
2018-09-02T15:46:13.200Z,12.60
2018-09-02T16:16:55.992Z,9.90
2018-09-02T16:19:29.410Z,11.70
2018-09-02T16:24:39.787Z,11.40
2018-09-02T16:29:47.744Z,13.27
2018-09-02T16:34:56.282Z,12.33
2018-09-02T16:37:25.003Z,13.60
2018-09-02T16:45:26.260Z,14.33
2018-09-02T16:47:56.249Z,12.13
2018-09-02T16:50:29.759Z,15.47
2018-09-02T16:52:58.097Z,15.87
2018-09-02T16:58:10.710Z,15.10
2018-09-02T17:00:39.917Z,14.93
2018-09-02T17:03:09.194Z,15.80
2018-09-02T17:08:21.267Z,15.83
2018-09-02T17:10:50.392Z,14.70
2018-09-02T17:13:18.742Z,22.20
2018-09-02T17:15:51.300Z,16.10
2018-09-02T17:32:21.993Z,17.43
2018-09-02T17:43:58.766Z,13.90
2018-09-02T17:49:03.858Z,18.70
2018-09-02T17:51:40.169Z,19.00
2018-09-02T17:54:09.100Z,21.23
2018-09-02T17:56:37.761Z,18.67
2018-09-02T18:01:43.411Z,19.57
2018-09-02T18:04:14.827Z,24.33
2018-09-02T18:06:44.234Z,17.83
2018-09-02T18:09:16.292Z,19.30
2018-09-02T18:14:25.447Z,19.40
2018-09-02T18:16:53.723Z,20.17
2018-09-02T18:19:34.294Z,20.87
2018-09-02T18:25:07.542Z,21.83
2018-09-02T18:30:20.363Z,19.13
2018-09-02T18:32:59.225Z,25.30
2018-09-02T18:35:29.676Z,19.97
2018-09-02T18:43:22.460Z,25.20
2018-09-02T18:48:43.179Z,19.93
2018-09-02T18:51:11.703Z,21.20
2018-09-02T18:53:41.646Z,18.83
2018-09-02T18:56:17.172Z,20.87
2018-09-02T18:58:46.190Z,24.60
2018-09-02T19:01:23.108Z,19.37
2018-09-02T19:06:34.858Z,20.90
2018-09-02T19:11:46.323Z,23.47
2018-09-02T19:14:23.167Z,21.63
2018-09-02T19:19:39.806Z,19.47
2018-09-02T19:22:16.890Z,23.47
2018-09-02T19:27:34.080Z,22.10
2018-09-02T19:30:03.358Z,22.70
2018-09-02T19:32:37.167Z,22.03
2018-09-02T19:35:09.469Z,22.03
2018-09-02T19:37:38.427Z,27.43
2018-09-02T19:42:50.042Z,22.43
2018-09-02T19:45:27.084Z,21.10
2018-09-02T19:47:56.385Z,20.47
2018-09-02T19:50:25.511Z,24.03
2018-09-02T19:52:54.583Z,24.27
2018-09-02T19:55:23.135Z,20.93
2018-09-02T19:58:05.696Z,25.87
2018-09-02T20:00:36.064Z,18.60
2018-09-02T20:03:10.947Z,20.50
2018-09-02T20:05:41.063Z,22.83
2018-09-02T20:08:14.341Z,25.73
2018-09-02T20:10:43.809Z,21.40
2018-09-02T20:13:13.437Z,25.87
2018-09-02T20:15:43.924Z,26.50
2018-09-02T20:18:14.725Z,26.87
2018-09-02T20:20:46.667Z,25.93
2018-09-02T20:23:19.202Z,22.30
2018-09-02T20:31:15.349Z,28.90
2018-09-02T20:33:56.452Z,28.43
2018-09-02T20:36:25.109Z,22.93
2018-09-02T20:38:57.726Z,25.50
2018-09-02T20:41:32.107Z,31.47
2018-09-02T20:44:02.209Z,22.87
2018-09-02T20:46:31.178Z,24.73
2018-09-02T20:49:06.050Z,25.60
2018-09-02T20:51:35.755Z,29.43
2018-09-02T20:54:05.630Z,30.17
2018-09-02T21:02:03.479Z,29.63
2018-09-02T21:07:15.582Z,32.47
2018-09-02T21:09:45.493Z,26.43
2018-09-02T21:12:18.327Z,32.50
2018-09-02T21:14:52.450Z,27.10
2018-09-02T21:17:20.746Z,30.33
2018-09-02T21:19:49.118Z,33.87
2018-09-02T21:22:18.218Z,29.83
2018-09-02T21:24:46.973Z,29.70
2018-09-02T21:27:15.290Z,26.20
2018-09-02T21:29:43.511Z,32.70
2018-09-02T21:32:16.761Z,31.23
2018-09-02T21:34:45.519Z,30.17
2018-09-02T21:37:14.438Z,33.73
2018-09-02T21:39:43.311Z,29.70
2018-09-02T21:42:12.213Z,34.90
2018-09-02T21:44:46.635Z,35.10
2018-09-02T21:47:15.132Z,34.73
2018-09-02T21:49:43.510Z,29.07
2018-09-02T21:52:11.908Z,34.10
2018-09-02T21:54:40.343Z,29.33
2018-09-02T21:57:08.909Z,27.83
2018-09-02T21:59:38.865Z,31.33
2018-09-02T22:02:07.919Z,32.17
2018-09-02T22:04:36.396Z,32.60
2018-09-02T22:07:06.606Z,34.30
2018-09-02T22:09:35.326Z,32.13
2018-09-02T22:12:04.730Z,35.17
2018-09-02T22:14:33.215Z,29.47
2018-09-02T22:17:01.974Z,27.40
2018-09-02T22:19:30.284Z,28.67
2018-09-02T22:21:59.690Z,30.93
2018-09-02T22:24:28.035Z,32.53
2018-09-02T22:26:56.657Z,32.70
2018-09-02T22:29:25.347Z,33.00
2018-09-02T22:31:55.566Z,27.87
2018-09-02T22:37:03.164Z,29.87
2018-09-02T22:39:31.644Z,31.43
2018-09-02T22:41:59.965Z,35.33
2018-09-02T22:44:28.788Z,30.60
2018-09-02T22:46:57.062Z,38.60
2018-09-02T22:49:26.186Z,27.07
2018-09-02T22:51:54.439Z,29.03
2018-09-02T22:54:22.591Z,39.03
2018-09-02T22:56:50.757Z,33.40
2018-09-02T22:59:19.181Z,29.13
2018-09-02T23:01:47.302Z,31.00
2018-09-02T23:04:15.690Z,34.70
2018-09-02T23:06:43.940Z,32.00
2018-09-02T23:09:12.503Z,31.87
2018-09-02T23:11:40.964Z,35.87
2018-09-02T23:14:09.257Z,35.60
2018-09-02T23:16:38.787Z,32.47
2018-09-02T23:19:07.133Z,37.00
2018-09-02T23:21:35.842Z,33.20
2018-09-02T23:24:04.697Z,29.33
2018-09-02T23:26:33.461Z,31.13
2018-09-02T23:29:01.728Z,35.20
2018-09-02T23:31:30.335Z,30.67
2018-09-02T23:33:59.642Z,36.13
2018-09-02T23:36:27.793Z,32.60
2018-09-02T23:38:55.991Z,51.00
2018-09-02T23:41:24.097Z,36.70
2018-09-02T23:43:52.312Z,37.43
2018-09-02T23:46:20.652Z,38.03
2018-09-02T23:48:48.835Z,31.43
2018-09-02T23:51:16.982Z,34.73
2018-09-02T23:53:45.153Z,42.87
2018-09-02T23:56:13.458Z,38.80
2018-09-02T23:58:42.185Z,53.67
